createdAt,value
2023-05-05T00:01:22.175Z,61.29
2023-05-05T00:03:53.985Z,61.23
2023-05-05T00:06:25.732Z,61.15
2023-05-05T00:08:57.478Z,61.04
2023-05-05T00:11:29.342Z,61.19
2023-05-05T00:14:02.053Z,61.05
2023-05-05T00:16:34.237Z,60.89
2023-05-05T00:19:06.695Z,60.76
2023-05-05T00:21:38.467Z,60.71
2023-05-05T00:24:10.922Z,61.46
2023-05-05T00:26:42.770Z,60.91
2023-05-05T00:29:14.531Z,61.25
2023-05-05T00:31:46.302Z,60.96
2023-05-05T00:34:18.381Z,61.47
2023-05-05T00:36:50.308Z,61.51
2023-05-05T00:39:22.209Z,61.62
2023-05-05T00:41:54.250Z,61.11
2023-05-05T00:44:40.427Z,61.29
2023-05-05T00:47:12.414Z,61.45
2023-05-05T00:49:45.107Z,61.38
2023-05-05T00:52:17.243Z,61.40
2023-05-05T00:54:49.320Z,61.03
2023-05-05T00:57:21.796Z,61.17
2023-05-05T00:59:53.975Z,61.93
2023-05-05T01:02:25.991Z,61.86
2023-05-05T01:04:59.166Z,61.62
2023-05-05T01:07:37.447Z,61.86
2023-05-05T01:10:20.155Z,61.83
2023-05-05T01:12:59.960Z,62.02
2023-05-05T01:15:35.672Z,62.24
2023-05-05T01:18:16.434Z,62.40
2023-05-05T01:20:49.490Z,62.37
2023-05-05T01:23:33.942Z,62.16
2023-05-05T01:26:25.843Z,62.73
2023-05-05T01:29:08.200Z,62.59
2023-05-05T01:31:53.741Z,62.82
2023-05-05T01:34:29.276Z,62.69
2023-05-05T01:37:08.779Z,62.69
2023-05-05T01:39:41.972Z,63.02
2023-05-05T01:42:15.144Z,62.85
2023-05-05T01:44:49.218Z,62.75
2023-05-05T01:47:22.395Z,63.00
2023-05-05T01:49:54.860Z,62.97
2023-05-05T01:52:27.054Z,63.69
2023-05-05T01:54:59.965Z,63.74
2023-05-05T01:57:33.225Z,63.85
2023-05-05T02:00:06.024Z,63.72
2023-05-05T02:02:48.215Z,63.83
2023-05-05T02:05:22.837Z,64.01
2023-05-05T02:07:53.509Z,63.67
2023-05-05T02:10:25.625Z,63.61
2023-05-05T02:12:57.860Z,63.62
2023-05-05T02:15:33.707Z,63.99
2023-05-05T02:18:08.623Z,64.25
2023-05-05T02:20:43.674Z,64.18
2023-05-05T02:23:17.805Z,64.38
2023-05-05T02:25:53.076Z,64.45
2023-05-05T02:28:30.593Z,64.62
2023-05-05T02:31:03.449Z,64.86
2023-05-05T02:33:36.373Z,64.55
2023-05-05T02:36:15.940Z,64.62
2023-05-05T02:38:56.841Z,64.45
2023-05-05T02:41:31.479Z,64.43
2023-05-05T02:44:05.933Z,64.66
2023-05-05T02:46:40.125Z,64.67
2023-05-05T02:49:11.917Z,64.67
2023-05-05T02:51:43.873Z,64.89
2023-05-05T02:54:22.692Z,64.35
2023-05-05T02:56:56.695Z,64.59
2023-05-05T02:59:34.679Z,64.83
2023-05-05T03:02:15.486Z,65.18
2023-05-05T03:04:50.257Z,65.05
2023-05-05T03:07:25.091Z,64.79
2023-05-05T03:10:07.848Z,64.71
2023-05-05T03:12:46.796Z,64.75
2023-05-05T03:15:26.625Z,65.02
2023-05-05T03:17:59.666Z,64.83
2023-05-05T03:20:32.329Z,65.20
2023-05-05T03:23:08.287Z,64.76
2023-05-05T03:25:47.907Z,64.99
2023-05-05T03:28:26.332Z,65.25
2023-05-05T03:30:58.888Z,65.08
2023-05-05T03:33:31.315Z,65.02
2023-05-05T03:36:04.546Z,65.40
2023-05-05T03:38:36.258Z,65.19
2023-05-05T03:41:10.361Z,64.58
2023-05-05T03:43:42.446Z,64.89
2023-05-05T03:46:14.975Z,64.87
2023-05-05T03:48:48.759Z,64.80
2023-05-05T03:51:21.040Z,65.04
2023-05-05T03:53:52.867Z,64.58
2023-05-05T03:56:24.653Z,64.93
2023-05-05T03:58:56.752Z,64.92
2023-05-05T04:01:29.953Z,64.91
2023-05-05T04:04:02.156Z,64.50
2023-05-05T04:06:34.038Z,64.34
2023-05-05T04:09:06.193Z,63.60
2023-05-05T04:11:38.075Z,63.74
2023-05-05T04:14:10.214Z,63.56
2023-05-05T04:16:43.128Z,63.61
2023-05-05T04:19:15.072Z,62.63
2023-05-05T04:21:47.976Z,62.75
2023-05-05T04:24:23.106Z,62.33
2023-05-05T04:26:55.085Z,61.60
2023-05-05T04:29:26.954Z,60.45
2023-05-05T04:31:58.740Z,59.74
2023-05-05T04:34:31.880Z,59.63
2023-05-05T04:37:04.644Z,59.34
2023-05-05T04:39:36.696Z,59.16
2023-05-05T04:42:08.928Z,58.85
2023-05-05T04:44:41.658Z,58.62
2023-05-05T04:47:14.662Z,58.17
2023-05-05T04:49:46.759Z,58.00
2023-05-05T04:52:18.593Z,57.54
2023-05-05T04:54:50.486Z,56.80
2023-05-05T04:57:22.569Z,56.08
2023-05-05T04:59:54.556Z,55.86
2023-05-05T05:02:27.133Z,55.44
2023-05-05T05:04:58.996Z,55.06
2023-05-05T05:07:30.759Z,54.43
2023-05-05T05:10:02.679Z,53.87
2023-05-05T05:12:34.716Z,54.14
2023-05-05T05:15:08.124Z,54.29
2023-05-05T05:17:40.055Z,53.19
2023-05-05T05:20:14.428Z,52.78
2023-05-05T05:22:44.930Z,52.59
2023-05-05T05:25:17.555Z,52.50
2023-05-05T05:27:58.476Z,52.18
2023-05-05T05:30:41.974Z,52.28
2023-05-05T05:33:14.696Z,51.37
2023-05-05T05:35:46.723Z,51.11
2023-05-05T05:38:18.710Z,50.95
2023-05-05T05:40:50.783Z,51.06
2023-05-05T05:43:22.739Z,51.23
2023-05-05T05:45:55.255Z,50.71
2023-05-05T05:48:28.586Z,50.32
2023-05-05T05:51:02.147Z,50.43
2023-05-05T05:53:34.088Z,50.33
2023-05-05T05:56:06.807Z,50.09
2023-05-05T05:58:39.080Z,50.26
2023-05-05T06:01:11.318Z,49.69
2023-05-05T06:03:43.244Z,49.89
2023-05-05T06:06:15.304Z,50.00
2023-05-05T06:08:47.427Z,49.45
2023-05-05T06:11:19.261Z,47.86
2023-05-05T06:13:51.176Z,48.06
2023-05-05T06:16:23.042Z,47.92
2023-05-05T06:18:55.328Z,47.40
2023-05-05T06:21:27.764Z,46.94
2023-05-05T06:23:59.783Z,45.78
2023-05-05T06:26:32.568Z,44.63
2023-05-05T06:29:04.440Z,42.89
2023-05-05T06:31:36.549Z,40.93
2023-05-05T06:34:08.510Z,38.94
2023-05-05T06:36:40.588Z,36.93
2023-05-05T06:39:13.982Z,35.24
2023-05-05T06:41:47.352Z,33.78
2023-05-05T06:44:19.108Z,31.97
2023-05-05T06:46:51.378Z,31.60
2023-05-05T06:49:23.145Z,30.94
2023-05-05T06:51:54.906Z,29.82
2023-05-05T06:54:26.871Z,29.01
2023-05-05T06:56:59.666Z,28.90
2023-05-05T06:59:31.538Z,26.91
2023-05-05T07:02:03.321Z,25.61
2023-05-05T07:04:35.712Z,26.60
2023-05-05T07:07:07.595Z,26.24
2023-05-05T07:09:39.352Z,23.89
2023-05-05T07:12:11.400Z,24.87
2023-05-05T07:14:43.312Z,24.98
2023-05-05T07:17:15.107Z,25.12
2023-05-05T07:19:46.885Z,24.19
2023-05-05T07:22:18.628Z,23.83
2023-05-05T07:24:53.241Z,22.68
2023-05-05T07:27:25.254Z,23.56
2023-05-05T07:29:57.059Z,23.91
2023-05-05T07:32:29.026Z,22.88
2023-05-05T07:35:00.859Z,22.45
2023-05-05T07:37:32.709Z,23.13
2023-05-05T07:40:04.659Z,22.19
2023-05-05T07:42:36.642Z,22.73
2023-05-05T07:45:10.296Z,23.40
2023-05-05T07:47:42.730Z,22.29
2023-05-05T07:50:14.794Z,21.79
2023-05-05T07:52:51.820Z,21.62
2023-05-05T07:55:28.333Z,22.72
2023-05-05T07:58:00.072Z,22.62
2023-05-05T08:00:32.057Z,23.52
2023-05-05T08:03:03.960Z,24.17
2023-05-05T08:05:36.039Z,24.58
2023-05-05T08:08:08.095Z,24.28
2023-05-05T08:10:39.917Z,24.54
2023-05-05T08:13:11.817Z,25.31
2023-05-05T08:15:45.198Z,26.05
2023-05-05T08:18:17.372Z,25.38
2023-05-05T08:20:49.525Z,24.82
2023-05-05T08:23:21.578Z,24.52
2023-05-05T08:25:53.477Z,25.72
2023-05-05T08:28:25.239Z,25.78
2023-05-05T08:30:57.089Z,26.26
2023-05-05T08:33:28.841Z,25.99
2023-05-05T08:36:00.896Z,26.58
2023-05-05T08:38:32.899Z,26.88
2023-05-05T08:41:04.789Z,27.12
2023-05-05T08:43:36.869Z,26.86
2023-05-05T08:46:09.183Z,26.92
2023-05-05T08:48:42.409Z,27.23
2023-05-05T08:51:17.955Z,27.66
2023-05-05T08:53:58.515Z,27.63
2023-05-05T08:56:34.807Z,28.67
2023-05-05T08:59:06.907Z,28.83
2023-05-05T09:01:38.884Z,29.20
2023-05-05T09:04:11.930Z,28.80
2023-05-05T09:06:44.281Z,28.93
2023-05-05T09:09:16.418Z,28.65
2023-05-05T09:11:48.802Z,28.25
2023-05-05T09:14:20.607Z,28.97
2023-05-05T09:16:52.430Z,29.40
2023-05-05T09:19:24.298Z,29.29
2023-05-05T09:21:56.407Z,29.82
2023-05-05T09:24:28.186Z,28.71
2023-05-05T09:27:01.664Z,28.22
2023-05-05T09:29:33.697Z,29.36
2023-05-05T09:32:08.860Z,28.87
2023-05-05T09:34:41.002Z,29.29
2023-05-05T09:37:12.877Z,29.31
2023-05-05T09:39:56.090Z,28.59
2023-05-05T09:42:28.027Z,28.31
2023-05-05T09:45:00.220Z,28.75
2023-05-05T09:47:38.314Z,28.79
2023-05-05T09:50:14.226Z,28.37
2023-05-05T09:52:46.715Z,28.58
2023-05-05T09:55:19.596Z,28.97
2023-05-05T09:57:51.480Z,29.04
2023-05-05T10:00:23.918Z,28.56
2023-05-05T10:03:05.313Z,29.08
2023-05-05T10:05:50.554Z,28.48
2023-05-05T10:08:23.878Z,29.03
2023-05-05T10:10:57.229Z,28.86
2023-05-05T10:13:29.466Z,28.89
2023-05-05T10:16:02.172Z,28.15
2023-05-05T17:07:53.851Z,42.62
2023-05-05T17:10:22.566Z,42.91
2023-05-05T17:12:50.883Z,43.22
2023-05-05T17:15:18.452Z,43.24
2023-05-05T17:17:46.857Z,43.21
2023-05-05T17:20:15.743Z,43.34
2023-05-05T17:22:45.932Z,43.52
2023-05-05T17:25:14.238Z,44.17
2023-05-05T17:27:42.606Z,44.04
2023-05-05T17:30:12.406Z,44.44
2023-05-05T17:32:40.857Z,44.76
2023-05-05T17:35:10.616Z,45.30
2023-05-05T17:37:39.195Z,45.51
2023-05-05T17:40:09.226Z,45.67
2023-05-05T17:42:37.609Z,46.15
2023-05-05T17:45:08.921Z,46.22
2023-05-05T17:47:37.727Z,46.61
2023-05-05T17:50:10.060Z,46.67
2023-05-05T17:52:39.781Z,46.76
2023-05-05T17:55:09.904Z,46.89
2023-05-05T17:57:38.576Z,47.12
2023-05-05T18:00:09.712Z,47.56
2023-05-05T18:02:41.324Z,47.57
2023-05-05T18:05:10.463Z,47.89
2023-05-05T18:07:39.046Z,48.03
2023-05-05T18:10:09.865Z,48.57
2023-05-05T18:12:38.251Z,48.65
2023-05-05T18:15:09.145Z,48.74
2023-05-05T18:17:37.826Z,49.29
2023-05-05T18:20:09.574Z,49.83
2023-05-05T18:22:37.978Z,49.61
2023-05-05T18:25:09.586Z,50.18
2023-05-05T18:27:38.300Z,50.02
2023-05-05T18:30:08.970Z,50.72
2023-05-05T18:32:37.545Z,51.10
2023-05-05T18:35:08.132Z,51.03
2023-05-05T18:37:36.876Z,50.99
2023-05-05T18:40:09.308Z,51.22
2023-05-05T18:42:37.685Z,51.40
2023-05-05T18:45:07.471Z,51.36
2023-05-05T18:47:38.066Z,51.69
2023-05-05T18:50:09.245Z,51.88
2023-05-05T18:52:37.633Z,51.92
2023-05-05T18:55:06.721Z,52.37
2023-05-05T18:57:35.181Z,52.35
2023-05-05T19:00:04.147Z,52.35
2023-05-05T19:02:32.562Z,52.50
2023-05-05T19:05:01.390Z,52.67
2023-05-05T19:07:35.472Z,52.64
2023-05-05T19:10:06.138Z,52.77
2023-05-05T19:12:34.556Z,53.03
2023-05-05T19:15:02.969Z,53.07
2023-05-05T19:17:30.507Z,52.86
2023-05-05T19:19:58.866Z,52.99
2023-05-05T19:22:26.307Z,53.28
2023-05-05T19:24:54.674Z,53.25
2023-05-05T19:27:23.063Z,53.63
2023-05-05T19:29:51.595Z,53.68
2023-05-05T19:32:20.383Z,53.80
2023-05-05T19:34:49.086Z,53.80
2023-05-05T19:37:17.412Z,54.15
2023-05-05T19:39:45.086Z,53.85
2023-05-05T19:42:13.577Z,54.06
2023-05-05T19:44:41.965Z,54.50
2023-05-05T19:47:10.962Z,54.27
2023-05-05T19:49:39.817Z,54.73
2023-05-05T19:52:08.114Z,54.43
2023-05-05T19:54:36.751Z,54.78
2023-05-05T19:57:06.587Z,54.83
2023-05-05T19:59:34.985Z,54.86
2023-05-05T20:02:03.383Z,55.02
2023-05-05T20:04:31.908Z,55.15
2023-05-05T20:06:59.503Z,55.12
2023-05-05T20:09:27.832Z,55.79
2023-05-05T20:11:55.874Z,56.03
2023-05-05T20:14:24.373Z,55.98
2023-05-05T20:16:52.018Z,55.90
2023-05-05T20:19:20.301Z,56.13
2023-05-05T20:21:47.710Z,55.97
2023-05-05T20:24:16.547Z,56.06
2023-05-05T20:26:44.888Z,56.34
2023-05-05T20:29:14.089Z,56.30
2023-05-05T20:31:42.419Z,56.16
2023-05-05T20:34:10.225Z,56.61
2023-05-05T20:36:38.463Z,56.62
2023-05-05T20:39:07.490Z,56.73
2023-05-05T20:41:37.391Z,57.00
2023-05-05T20:44:06.041Z,56.67
2023-05-05T20:46:34.613Z,56.60
2023-05-05T20:49:02.960Z,56.75
2023-05-05T20:51:33.561Z,56.93
2023-05-05T20:54:02.047Z,56.70
2023-05-05T20:56:29.505Z,56.59
2023-05-05T20:58:57.811Z,57.23
2023-05-05T21:01:25.418Z,57.19
2023-05-05T21:03:53.720Z,57.34
2023-05-05T21:06:22.018Z,57.55
2023-05-05T21:08:50.392Z,57.46
2023-05-05T21:11:17.902Z,57.57
2023-05-05T21:13:46.142Z,57.48
2023-05-05T21:16:14.471Z,58.24
2023-05-05T21:18:46.041Z,57.96
2023-05-05T21:21:14.631Z,58.17
2023-05-05T21:23:42.990Z,58.01
2023-05-05T21:26:10.493Z,58.04
2023-05-05T21:28:38.781Z,58.69
2023-05-05T21:31:21.066Z,58.51
2023-05-05T21:33:50.568Z,58.52
2023-05-05T21:36:18.823Z,58.44
2023-05-05T21:38:47.216Z,58.48
2023-05-05T21:41:14.857Z,58.48
2023-05-05T21:43:43.132Z,59.26
2023-05-05T21:46:11.466Z,59.27
2023-05-05T21:48:40.722Z,59.05
2023-05-05T21:51:09.036Z,59.71
2023-05-05T21:53:37.143Z,59.84
2023-05-05T21:56:07.124Z,60.08
2023-05-05T21:58:35.503Z,59.58
2023-05-05T22:01:03.202Z,59.72
2023-05-05T22:03:31.861Z,59.56
2023-05-05T22:06:00.496Z,59.44
2023-05-05T22:08:27.986Z,59.91
2023-05-05T22:10:56.372Z,59.60
2023-05-05T22:13:23.898Z,59.64
2023-05-05T22:15:52.479Z,59.78
2023-05-05T22:18:20.893Z,59.80
2023-05-05T22:20:49.171Z,60.04
2023-05-05T22:23:18.053Z,59.89
2023-05-05T22:25:46.442Z,60.16
2023-05-05T22:28:14.044Z,60.10
2023-05-05T22:30:42.353Z,60.15
2023-05-05T22:33:10.295Z,60.23
2023-05-05T22:35:38.625Z,60.60
2023-05-05T22:38:06.339Z,60.63
2023-05-05T22:40:34.911Z,60.78
2023-05-05T22:43:03.291Z,60.57
2023-05-05T22:45:30.756Z,61.01
2023-05-05T22:47:59.145Z,60.99
2023-05-05T22:50:27.568Z,61.56
2023-05-05T22:52:54.990Z,61.24
2023-05-05T22:55:24.159Z,61.40
2023-05-05T22:57:52.752Z,61.57
2023-05-05T23:00:21.313Z,61.58
2023-05-05T23:02:49.675Z,61.26
2023-05-05T23:05:17.259Z,61.47
2023-05-05T23:07:45.689Z,61.59
2023-05-05T23:10:13.177Z,61.80
2023-05-05T23:12:41.841Z,62.05
2023-05-05T23:15:11.799Z,61.83
2023-05-05T23:17:40.441Z,61.99
2023-05-05T23:20:11.424Z,62.65
2023-05-05T23:22:39.846Z,62.70
2023-05-05T23:25:08.171Z,62.97
2023-05-05T23:27:37.645Z,63.44
2023-05-05T23:30:08.561Z,63.38
2023-05-05T23:32:38.111Z,63.91
2023-05-05T23:35:09.049Z,64.11
2023-05-05T23:37:37.585Z,63.95
2023-05-05T23:40:06.549Z,64.01
2023-05-05T23:42:35.042Z,64.03
2023-05-05T23:45:02.681Z,64.27
2023-05-05T23:47:31.566Z,64.33
2023-05-05T23:50:00.172Z,64.16
2023-05-05T23:52:28.609Z,64.41
2023-05-05T23:54:56.075Z,64.20
2023-05-05T23:57:24.749Z,64.55
2023-05-05T23:59:53.604Z,64.45
